sensor_id;sensor_type;location;lat;lon;timestamp;pressure;altitude;pressure_sealevel;temperature;humidity
68145;BME280;55400;51.824;-0.196;2024-01-06T00:02:31;99988.58;;;5.88;81.02
68145;BME280;55400;51.824;-0.196;2024-01-06T00:06:31;99990.45;;;5.87;81.21
68145;BME280;55400;51.824;-0.196;2024-01-06T00:10:31;99995.67;;;5.90;81.15
68145;BME280;55400;51.824;-0.196;2024-01-06T00:14:31;99989.28;;;5.95;81.53
68145;BME280;55400;51.824;-0.196;2024-01-06T00:18:31;99993.62999999999;;;5.97;81.57
68145;BME280;55400;51.824;-0.196;2024-01-06T00:22:31;99994.34;;;5.95;81.28
68145;BME280;55400;51.824;-0.196;2024-01-06T00:26:31;100001.31;;;5.87;81.08
68145;BME280;55400;51.824;-0.196;2024-01-06T00:30:33;100007.15;;;5.89;81.27
68145;BME280;55400;51.824;-0.196;2024-01-06T00:34:31;100010.49;;;5.88;81.40
68145;BME280;55400;51.824;-0.196;2024-01-06T00:38:31;100010.49;;;5.89;81.40
68145;BME280;55400;51.824;-0.196;2024-01-06T00:42:31;100017.33;;;5.92;81.77
68145;BME280;55400;51.824;-0.196;2024-01-06T00:46:31;100014.11;;;5.95;81.99
68145;BME280;55400;51.824;-0.196;2024-01-06T00:50:31;100019.19;;;5.97;82.29
68145;BME280;55400;51.824;-0.196;2024-01-06T00:54:31;100020.08;;;5.98;82.07
68145;BME280;55400;51.824;-0.196;2024-01-06T00:58:31;100021.51;;;6.03;82.00
68145;BME280;55400;51.824;-0.196;2024-01-06T01:02:31;100022.65;;;5.99;82.20
68145;BME280;55400;51.824;-0.196;2024-01-06T01:06:31;100029.58;;;5.94;81.63
68145;BME280;55400;51.824;-0.196;2024-01-06T01:10:31;100027.36;;;5.83;81.76
68145;BME280;55400;51.824;-0.196;2024-01-06T01:14:31;100034.58;;;5.91;82.75
68145;BME280;55400;51.824;-0.196;2024-01-06T01:18:31;100036.55;;;5.99;82.75
68145;BME280;55400;51.824;-0.196;2024-01-06T01:22:31;100036.55;;;6.02;82.81
68145;BME280;55400;51.824;-0.196;2024-01-06T01:26:31;100037.81;;;6.06;82.26
68145;BME280;55400;51.824;-0.196;2024-01-06T01:30:31;100040.26;;;5.97;82.36
68145;BME280;55400;51.824;-0.196;2024-01-06T01:38:31;100047.08;;;5.87;82.68
68145;BME280;55400;51.824;-0.196;2024-01-06T01:42:32;100052.92;;;5.92;82.86
68145;BME280;55400;51.824;-0.196;2024-01-06T01:46:31;100050.09;;;5.97;83.22
68145;BME280;55400;51.824;-0.196;2024-01-06T01:50:31;100052.91;;;6.02;83.35
68145;BME280;55400;51.824;-0.196;2024-01-06T01:54:31;100056.39;;;6.06;83.19
68145;BME280;55400;51.824;-0.196;2024-01-06T01:58:31;100067.1;;;6.02;82.99
68145;BME280;55400;51.824;-0.196;2024-01-06T02:02:31;100067.1;;;6.07;82.60
68145;BME280;55400;51.824;-0.196;2024-01-06T02:06:31;100074.99;;;6.04;82.14
68145;BME280;55400;51.824;-0.196;2024-01-06T02:10:31;100086.95;;;6.07;82.31
68145;BME280;55400;51.824;-0.196;2024-01-06T02:14:31;100093.95;;;6.09;82.56
68145;BME280;55400;51.824;-0.196;2024-01-06T02:18:31;100098.51999999999;;;6.11;82.55
68145;BME280;55400;51.824;-0.196;2024-01-06T02:22:31;100108.8;;;6.10;82.13
68145;BME280;55400;51.824;-0.196;2024-01-06T02:26:31;100108.8;;;6.11;82.27
68145;BME280;55400;51.824;-0.196;2024-01-06T02:30:31;100115.25;;;6.13;81.68
68145;BME280;55400;51.824;-0.196;2024-01-06T02:34:31;100115.25;;;6.12;81.68
68145;BME280;55400;51.824;-0.196;2024-01-06T02:38:31;100121.97;;;6.13;81.57
68145;BME280;55400;51.824;-0.196;2024-01-06T02:42:31;100124.65;;;6.15;81.71
68145;BME280;55400;51.824;-0.196;2024-01-06T02:46:31;100133.06;;;6.06;81.57
68145;BME280;55400;51.824;-0.196;2024-01-06T02:50:31;100140.56;;;6.01;81.38
68145;BME280;55400;51.824;-0.196;2024-01-06T02:54:31;100135.16;;;6.06;82.29
68145;BME280;55400;51.824;-0.196;2024-01-06T02:58:31;100140.26;;;6.10;82.42
68145;BME280;55400;51.824;-0.196;2024-01-06T03:02:31;100140.99;;;6.00;82.07
68145;BME280;55400;51.824;-0.196;2024-01-06T03:06:32;100145.34;;;5.93;82.10
68145;BME280;55400;51.824;-0.196;2024-01-06T03:10:31;100150.76000000001;;;5.96;82.33
68145;BME280;55400;51.824;-0.196;2024-01-06T03:13:18;100152.44;;;5.96;82.83
68145;BME280;55400;51.824;-0.196;2024-01-06T03:15:00;100158.04000000001;;;6.00;82.20
68145;BME280;55400;51.824;-0.196;2024-01-06T03:18:31;100158.04000000001;;;6.04;82.20
68145;BME280;55400;51.824;-0.196;2024-01-06T03:22:31;100162.40000000001;;;6.07;81.93
68145;BME280;55400;51.824;-0.196;2024-01-06T03:26:32;100167.98999999999;;;6.09;81.76
68145;BME280;55400;51.824;-0.196;2024-01-06T03:34:32;100167.08;;;6.10;81.45
68145;BME280;55400;51.824;-0.196;2024-01-06T03:38:32;100173.42;;;6.09;81.14
68145;BME280;55400;51.824;-0.196;2024-01-06T03:42:31;100178.17;;;6.07;81.00
68145;BME280;55400;51.824;-0.196;2024-01-06T03:46:32;100181.87000000001;;;6.02;80.65
68145;BME280;55400;51.824;-0.196;2024-01-06T03:50:31;100182.78;;;6.01;81.37
68145;BME280;55400;51.824;-0.196;2024-01-06T03:54:32;100184.06999999999;;;5.98;80.91
68145;BME280;55400;51.824;-0.196;2024-01-06T03:58:31;100185.51999999999;;;6.00;81.13
68145;BME280;55400;51.824;-0.196;2024-01-06T04:02:32;100190.58;;;6.04;81.00
68145;BME280;55400;51.824;-0.196;2024-01-06T04:06:32;100190.58;;;6.01;80.74
68145;BME280;55400;51.824;-0.196;2024-01-06T04:10:32;100193.72;;;5.96;80.06
68145;BME280;55400;51.824;-0.196;2024-01-06T04:14:32;100196.8;;;5.99;80.40
68145;BME280;55400;51.824;-0.196;2024-01-06T04:18:32;100203.14;;;6.02;80.45
68145;BME280;55400;51.824;-0.196;2024-01-06T04:22:32;100209.02;;;6.03;80.43
68145;BME280;55400;51.824;-0.196;2024-01-06T04:26:32;100212.15;;;6.00;80.52
68145;BME280;55400;51.824;-0.196;2024-01-06T04:30:32;100210.35;;;6.06;80.55
68145;BME280;55400;51.824;-0.196;2024-01-06T04:34:32;100210.35;;;6.04;80.43
68145;BME280;55400;51.824;-0.196;2024-01-06T04:38:32;100216.08;;;6.03;80.13
68145;BME280;55400;51.824;-0.196;2024-01-06T04:42:32;100216.08;;;6.04;80.13
68145;BME280;55400;51.824;-0.196;2024-01-06T04:46:32;100214.98;;;6.02;79.68
68145;BME280;55400;51.824;-0.196;2024-01-06T04:50:32;100223.49;;;6.00;79.66
68145;BME280;55400;51.824;-0.196;2024-01-06T04:54:32;100229.67;;;5.99;79.66
68145;BME280;55400;51.824;-0.196;2024-01-06T04:58:32;100229.67;;;6.00;79.83
68145;BME280;55400;51.824;-0.196;2024-01-06T05:02:32;100229.43000000001;;;5.94;79.46
68145;BME280;55400;51.824;-0.196;2024-01-06T05:06:32;100243.54;;;5.87;78.91
68145;BME280;55400;51.824;-0.196;2024-01-06T05:10:32;100249.01999999999;;;5.83;79.33
68145;BME280;55400;51.824;-0.196;2024-01-06T05:14:32;100251.31;;;5.85;79.79
68145;BME280;55400;51.824;-0.196;2024-01-06T05:18:32;100260.29;;;5.71;79.21
68145;BME280;55400;51.824;-0.196;2024-01-06T05:22:32;100268.72;;;5.65;79.32
68145;BME280;55400;51.824;-0.196;2024-01-06T05:26:32;100278.44;;;5.67;79.29
68145;BME280;55400;51.824;-0.196;2024-01-06T05:30:32;100282.46;;;5.60;79.40
68145;BME280;55400;51.824;-0.196;2024-01-06T05:34:32;100282.46;;;5.65;79.92
68145;BME280;55400;51.824;-0.196;2024-01-06T05:38:32;100287.62000000001;;;5.72;80.55
68145;BME280;55400;51.824;-0.196;2024-01-06T05:42:32;100296.93;;;5.75;80.00
68145;BME280;55400;51.824;-0.196;2024-01-06T05:46:34;100298.56;;;5.79;79.92
68145;BME280;55400;51.824;-0.196;2024-01-06T05:50:32;100303.95999999999;;;5.76;79.65
68145;BME280;55400;51.824;-0.196;2024-01-06T05:54:32;100298.99;;;5.77;79.41
68145;BME280;55400;51.824;-0.196;2024-01-06T05:58:32;100309.11;;;5.81;79.39
68145;BME280;55400;51.824;-0.196;2024-01-06T06:06:32;100322.79999999999;;;5.79;79.34
68145;BME280;55400;51.824;-0.196;2024-01-06T06:10:32;100322.79999999999;;;5.80;79.55
68145;BME280;55400;51.824;-0.196;2024-01-06T06:14:32;100326.87;;;5.83;79.41
68145;BME280;55400;51.824;-0.196;2024-01-06T06:18:32;100336.35;;;5.75;79.21
68145;BME280;55400;51.824;-0.196;2024-01-06T06:22:32;100343.55;;;5.67;78.66
68145;BME280;55400;51.824;-0.196;2024-01-06T06:26:32;100346.92;;;5.59;79.14
68145;BME280;55400;51.824;-0.196;2024-01-06T06:30:32;100351.06;;;5.61;79.51
68145;BME280;55400;51.824;-0.196;2024-01-06T06:38:32;100360.55;;;5.66;79.30
68145;BME280;55400;51.824;-0.196;2024-01-06T06:42:32;100370.43;;;5.69;79.30
68145;BME280;55400;51.824;-0.196;2024-01-06T06:46:32;100374.47;;;5.67;79.28
68145;BME280;55400;51.824;-0.196;2024-01-06T06:50:32;100396.2;;;5.66;78.69
68145;BME280;55400;51.824;-0.196;2024-01-06T06:54:32;100396.2;;;5.67;78.95
68145;BME280;55400;51.824;-0.196;2024-01-06T06:58:32;100397.79999999999;;;5.70;78.75
68145;BME280;55400;51.824;-0.196;2024-01-06T07:02:32;100413.42;;;5.77;78.96
68145;BME280;55400;51.824;-0.196;2024-01-06T07:06:32;100423.13;;;5.74;78.49
68145;BME280;55400;51.824;-0.196;2024-01-06T07:10:32;100429.40999999999;;;5.78;78.31
68145;BME280;55400;51.824;-0.196;2024-01-06T07:18:32;100436.33;;;5.81;78.33
68145;BME280;55400;51.824;-0.196;2024-01-06T07:22:32;100445.79;;;5.83;78.66
68145;BME280;55400;51.824;-0.196;2024-01-06T07:26:32;100456.37000000001;;;5.85;78.76
68145;BME280;55400;51.824;-0.196;2024-01-06T07:30:32;100469.8;;;5.86;78.27
68145;BME280;55400;51.824;-0.196;2024-01-06T07:34:32;100469.8;;;5.75;78.27
68145;BME280;55400;51.824;-0.196;2024-01-06T07:38:32;100472.41;;;5.65;78.36
68145;BME280;55400;51.824;-0.196;2024-01-06T07:42:32;100481.06;;;5.66;78.22
68145;BME280;55400;51.824;-0.196;2024-01-06T07:46:32;100481.06;;;5.71;79.19
68145;BME280;55400;51.824;-0.196;2024-01-06T07:50:32;100485.31;;;5.77;78.94
68145;BME280;55400;51.824;-0.196;2024-01-06T07:54:32;100482.17;;;5.82;78.23
68145;BME280;55400;51.824;-0.196;2024-01-06T07:58:32;100493.16;;;5.81;77.84
68145;BME280;55400;51.824;-0.196;2024-01-06T08:02:32;100496.66;;;5.84;77.88
68145;BME280;55400;51.824;-0.196;2024-01-06T08:06:32;100499.51999999999;;;5.80;77.74
68145;BME280;55400;51.824;-0.196;2024-01-06T08:10:32;100504.58;;;5.76;77.96
68145;BME280;55400;51.824;-0.196;2024-01-06T08:14:32;100509.78;;;5.66;77.72
68145;BME280;55400;51.824;-0.196;2024-01-06T08:18:32;100513.61;;;5.53;77.91
68145;BME280;55400;51.824;-0.196;2024-01-06T08:22:32;100517.22;;;5.43;78.36
68145;BME280;55400;51.824;-0.196;2024-01-06T08:28:02;100528.92;;;5.33;78.93
68145;BME280;55400;51.824;-0.196;2024-01-06T08:30:32;100528.92;;;5.32;78.93
68145;BME280;55400;51.824;-0.196;2024-01-06T08:34:32;100536.01999999999;;;5.31;78.87
68145;BME280;55400;51.824;-0.196;2024-01-06T08:38:32;100542.95;;;5.32;79.25
68145;BME280;55400;51.824;-0.196;2024-01-06T08:42:32;100545.73000000001;;;5.33;79.58
68145;BME280;55400;51.824;-0.196;2024-01-06T08:46:32;100556.37000000001;;;5.35;79.36
68145;BME280;55400;51.824;-0.196;2024-01-06T08:50:32;100576.26000000001;;;5.31;79.79
68145;BME280;55400;51.824;-0.196;2024-01-06T08:54:32;100576.26000000001;;;5.17;79.11
68145;BME280;55400;51.824;-0.196;2024-01-06T08:58:32;100580.11;;;5.19;79.94
68145;BME280;55400;51.824;-0.196;2024-01-06T09:02:32;100582.28;;;5.13;80.82
68145;BME280;55400;51.824;-0.196;2024-01-06T09:06:33;100587.7;;;5.15;80.47
68145;BME280;55400;51.824;-0.196;2024-01-06T09:10:32;100594.75;;;5.23;80.49
68145;BME280;55400;51.824;-0.196;2024-01-06T09:14:32;100602.34;;;5.21;79.92
68145;BME280;55400;51.824;-0.196;2024-01-06T09:18:32;100602.48;;;5.22;80.40
68145;BME280;55400;51.824;-0.196;2024-01-06T09:22:33;100611.39;;;5.16;80.18
68145;BME280;55400;51.824;-0.196;2024-01-06T09:26:32;100617.97;;;5.20;80.58
68145;BME280;55400;51.824;-0.196;2024-01-06T09:30:33;100617.97;;;5.19;80.58
68145;BME280;55400;51.824;-0.196;2024-01-06T09:34:32;100625.36;;;5.22;80.42
68145;BME280;55400;51.824;-0.196;2024-01-06T09:38:33;100651.31;;;5.19;80.29
68145;BME280;55400;51.824;-0.196;2024-01-06T09:42:32;100657.73000000001;;;5.26;80.58
68145;BME280;55400;51.824;-0.196;2024-01-06T09:46:33;100662.77;;;5.24;80.86
68145;BME280;55400;51.824;-0.196;2024-01-06T09:50:32;100662.77;;;5.30;80.98
68145;BME280;55400;51.824;-0.196;2024-01-06T09:54:33;100669.45;;;5.39;81.46
68145;BME280;55400;51.824;-0.196;2024-01-06T09:58:33;100679.69;;;5.43;80.93
68145;BME280;55400;51.824;-0.196;2024-01-06T10:02:33;100680.17;;;5.45;81.09
68145;BME280;55400;51.824;-0.196;2024-01-06T10:06:37;100691.71;;;5.46;80.71
68145;BME280;55400;51.824;-0.196;2024-01-06T10:10:33;100691.71;;;5.47;80.71
68145;BME280;55400;51.824;-0.196;2024-01-06T10:14:33;100705.12999999999;;;5.53;80.77
68145;BME280;55400;51.824;-0.196;2024-01-06T10:18:33;100706.17;;;5.52;80.53
68145;BME280;55400;51.824;-0.196;2024-01-06T10:22:33;100706.17;;;5.49;80.53
68145;BME280;55400;51.824;-0.196;2024-01-06T10:26:43;100709.59;;;5.55;80.57
68145;BME280;55400;51.824;-0.196;2024-01-06T10:30:33;100709.59;;;5.53;80.57
68145;BME280;55400;51.824;-0.196;2024-01-06T10:34:33;100710.36;;;5.58;81.53
68145;BME280;55400;51.824;-0.196;2024-01-06T10:38:33;100716.81999999999;;;5.61;81.71
68145;BME280;55400;51.824;-0.196;2024-01-06T10:42:33;100716.06;;;5.67;81.14
68145;BME280;55400;51.824;-0.196;2024-01-06T10:46:33;100720.03;;;5.62;79.93
68145;BME280;55400;51.824;-0.196;2024-01-06T10:50:33;100729.13;;;5.65;80.24
68145;BME280;55400;51.824;-0.196;2024-01-06T10:58:33;100734.36;;;5.66;80.69
68145;BME280;55400;51.824;-0.196;2024-01-06T11:02:33;100734.36;;;5.72;81.22
68145;BME280;55400;51.824;-0.196;2024-01-06T11:10:33;100734.12;;;5.68;81.11
68145;BME280;55400;51.824;-0.196;2024-01-06T11:14:36;100735.63;;;5.69;81.29
68145;BME280;55400;51.824;-0.196;2024-01-06T11:18:33;100735.63;;;5.67;81.34
68145;BME280;55400;51.824;-0.196;2024-01-06T11:22:33;100730.43000000001;;;5.78;82.22
68145;BME280;55400;51.824;-0.196;2024-01-06T11:26:33;100735.72;;;5.68;80.63
68145;BME280;55400;51.824;-0.196;2024-01-06T11:30:33;100747.03;;;5.73;81.07
68145;BME280;55400;51.824;-0.196;2024-01-06T11:34:34;100745.92;;;5.92;81.87
68145;BME280;55400;51.824;-0.196;2024-01-06T11:38:33;100745.92;;;6.06;81.87
68145;BME280;55400;51.824;-0.196;2024-01-06T11:42:33;100745.92;;;6.20;81.02
68145;BME280;55400;51.824;-0.196;2024-01-06T11:46:33;100743.11;;;6.28;80.85
68145;BME280;55400;51.824;-0.196;2024-01-06T11:54:33;100745.51;;;6.36;78.51
68145;BME280;55400;51.824;-0.196;2024-01-06T11:58:33;100745.51;;;6.35;78.51
68145;BME280;55400;51.824;-0.196;2024-01-06T12:02:33;100739.86;;;6.41;78.04
68145;BME280;55400;51.824;-0.196;2024-01-06T12:06:33;100737.34;;;6.46;78.25
68145;BME280;55400;51.824;-0.196;2024-01-06T12:10:33;100741.41;;;6.51;77.29
68145;BME280;55400;51.824;-0.196;2024-01-06T12:14:33;100742.69;;;6.55;77.98
68145;BME280;55400;51.824;-0.196;2024-01-06T12:18:33;100742.69;;;6.57;76.79
68145;BME280;55400;51.824;-0.196;2024-01-06T12:26:33;100746.12;;;6.66;77.70
68145;BME280;55400;51.824;-0.196;2024-01-06T12:30:33;100746.12;;;6.61;76.82
68145;BME280;55400;51.824;-0.196;2024-01-06T12:34:33;100747.11;;;6.62;77.02
68145;BME280;55400;51.824;-0.196;2024-01-06T12:38:33;100744.58;;;6.75;77.37
68145;BME280;55400;51.824;-0.196;2024-01-06T12:42:33;100739.56;;;6.74;77.34
68145;BME280;55400;51.824;-0.196;2024-01-06T12:46:33;100737.8;;;6.72;76.94
68145;BME280;55400;51.824;-0.196;2024-01-06T12:50:33;100737.8;;;6.75;77.02
68145;BME280;55400;51.824;-0.196;2024-01-06T12:54:33;100733.11;;;6.72;76.54
68145;BME280;55400;51.824;-0.196;2024-01-06T12:58:33;100733.11;;;6.64;76.54
68145;BME280;55400;51.824;-0.196;2024-01-06T13:02:33;100727.66;;;6.61;76.39
68145;BME280;55400;51.824;-0.196;2024-01-06T13:06:33;100724.01999999999;;;6.58;76.17
68145;BME280;55400;51.824;-0.196;2024-01-06T13:10:33;100731.69;;;6.50;76.03
68145;BME280;55400;51.824;-0.196;2024-01-06T13:14:33;100731.69;;;6.55;76.49
68145;BME280;55400;51.824;-0.196;2024-01-06T13:22:33;100733.81000000001;;;6.54;76.12
68145;BME280;55400;51.824;-0.196;2024-01-06T13:26:33;100739.65;;;6.53;76.27
68145;BME280;55400;51.824;-0.196;2024-01-06T13:30:33;100749.91;;;6.54;76.20
68145;BME280;55400;51.824;-0.196;2024-01-06T13:34:33;100764.9;;;6.52;75.48
68145;BME280;55400;51.824;-0.196;2024-01-06T13:38:33;100761.19;;;6.57;75.90
68145;BME280;55400;51.824;-0.196;2024-01-06T13:42:33;100762.03;;;6.52;75.30
68145;BME280;55400;51.824;-0.196;2024-01-06T13:46:33;100766.36;;;6.54;75.13
68145;BME280;55400;51.824;-0.196;2024-01-06T13:50:33;100764.01;;;6.61;75.25
68145;BME280;55400;51.824;-0.196;2024-01-06T13:54:33;100764.86;;;6.67;75.64
68145;BME280;55400;51.824;-0.196;2024-01-06T13:58:33;100764.95;;;6.71;75.88
68145;BME280;55400;51.824;-0.196;2024-01-06T14:02:27;100766.86;;;6.71;unavailable
68145;BME280;55400;51.824;-0.196;2024-01-06T14:02:33;100766.86;;;6.69;75.38
68145;BME280;55400;51.824;-0.196;2024-01-06T14:06:33;100772.43999999999;;;6.63;75.35
68145;BME280;55400;51.824;-0.196;2024-01-06T14:10:33;100776.84000000001;;;6.64;75.50
68145;BME280;55400;51.824;-0.196;2024-01-06T14:14:33;100782.3;;;6.63;75.25
68145;BME280;55400;51.824;-0.196;2024-01-06T14:22:33;100784.23;;;6.58;74.94
68145;BME280;55400;51.824;-0.196;2024-01-06T14:26:33;100797.58;;;6.51;74.16
68145;BME280;55400;51.824;-0.196;2024-01-06T14:30:33;100797.58;;;6.44;73.96
68145;BME280;55400;51.824;-0.196;2024-01-06T14:34:34;100801.64;;;6.38;73.51
68145;BME280;55400;51.824;-0.196;2024-01-06T14:38:33;100809.73;;;6.36;73.43
68145;BME280;55400;51.824;-0.196;2024-01-06T14:42:33;100809.73;;;6.38;74.64
68145;BME280;55400;51.824;-0.196;2024-01-06T14:46:33;100815.06000000001;;;6.35;73.75
68145;BME280;55400;51.824;-0.196;2024-01-06T14:50:33;100815.75;;;6.30;74.17
68145;BME280;55400;51.824;-0.196;2024-01-06T14:58:33;100817.88;;;6.21;74.62
68145;BME280;55400;51.824;-0.196;2024-01-06T15:02:33;100825.01;;;6.11;74.98
68145;BME280;55400;51.824;-0.196;2024-01-06T15:06:33;100832.73000000001;;;6.01;75.16
68145;BME280;55400;51.824;-0.196;2024-01-06T15:10:33;100833.03;;;6.02;75.36
68145;BME280;55400;51.824;-0.196;2024-01-06T15:14:33;100833.25;;;6.03;76.12
68145;BME280;55400;51.824;-0.196;2024-01-06T15:18:33;100837.47;;;5.98;76.58
68145;BME280;55400;51.824;-0.196;2024-01-06T15:22:33;100842.19;;;6.01;76.65
68145;BME280;55400;51.824;-0.196;2024-01-06T15:26:33;100844.48;;;6.00;76.82
68145;BME280;55400;51.824;-0.196;2024-01-06T15:30:33;100849.65;;;5.97;76.76
68145;BME280;55400;51.824;-0.196;2024-01-06T15:34:33;100853.26;;;5.93;76.78
68145;BME280;55400;51.824;-0.196;2024-01-06T15:38:33;100858.86;;;5.94;76.72
68145;BME280;55400;51.824;-0.196;2024-01-06T15:42:33;100858.86;;;5.91;76.94
68145;BME280;55400;51.824;-0.196;2024-01-06T15:46:35;100867.76999999999;;;5.88;76.18
68145;BME280;55400;51.824;-0.196;2024-01-06T15:50:33;100867.76999999999;;;5.84;76.19
68145;BME280;55400;51.824;-0.196;2024-01-06T15:58:34;100886.58;;;5.83;75.79
68145;BME280;55400;51.824;-0.196;2024-01-06T16:02:33;100889.4;;;5.79;75.79
68145;BME280;55400;51.824;-0.196;2024-01-06T16:10:34;100896.24;;;5.83;76.56
68145;BME280;55400;51.824;-0.196;2024-01-06T16:14:34;100902.45;;;5.85;76.98
68145;BME280;55400;51.824;-0.196;2024-01-06T16:18:34;100909.0;;;5.88;76.97
68145;BME280;55400;51.824;-0.196;2024-01-06T16:26:34;100912.17;;;5.89;77.17
68145;BME280;55400;51.824;-0.196;2024-01-06T16:30:34;100917.11;;;5.87;77.22
68145;BME280;55400;51.824;-0.196;2024-01-06T16:34:34;100918.28;;;5.82;77.09
68145;BME280;55400;51.824;-0.196;2024-01-06T16:38:34;100929.19;;;5.75;77.11
68145;BME280;55400;51.824;-0.196;2024-01-06T16:42:34;100936.61;;;5.72;77.67
68145;BME280;55400;51.824;-0.196;2024-01-06T16:50:34;100941.54999999999;;;5.74;77.69
68145;BME280;55400;51.824;-0.196;2024-01-06T16:54:34;100941.54999999999;;;5.64;77.69
68145;BME280;55400;51.824;-0.196;2024-01-06T16:58:34;100949.59;;;5.61;77.10
68145;BME280;55400;51.824;-0.196;2024-01-06T17:02:34;100949.98000000001;;;5.59;77.19
68145;BME280;55400;51.824;-0.196;2024-01-06T17:06:34;100953.52;;;5.47;76.78
68145;BME280;55400;51.824;-0.196;2024-01-06T17:14:34;100965.53;;;5.48;77.51
68145;BME280;55400;51.824;-0.196;2024-01-06T17:18:34;100965.53;;;5.51;77.51
68145;BME280;55400;51.824;-0.196;2024-01-06T17:22:34;100971.26;;;5.57;77.91
68145;BME280;55400;51.824;-0.196;2024-01-06T17:26:34;100974.23999999999;;;5.61;77.74
68145;BME280;55400;51.824;-0.196;2024-01-06T17:30:35;100983.31;;;5.66;78.26
68145;BME280;55400;51.824;-0.196;2024-01-06T17:34:34;100984.03;;;5.65;78.12
68145;BME280;55400;51.824;-0.196;2024-01-06T17:38:34;100984.03;;;5.62;77.99
68145;BME280;55400;51.824;-0.196;2024-01-06T17:42:34;100989.84;;;5.64;78.69
68145;BME280;55400;51.824;-0.196;2024-01-06T17:50:34;100997.17000000001;;;5.65;78.96
68145;BME280;55400;51.824;-0.196;2024-01-06T17:54:34;101000.71;;;5.68;79.36
68145;BME280;55400;51.824;-0.196;2024-01-06T18:02:34;101007.69;;;5.64;79.38
68145;BME280;55400;51.824;-0.196;2024-01-06T18:06:34;101007.9;;;5.67;79.50
68145;BME280;55400;51.824;-0.196;2024-01-06T18:10:34;101007.03;;;5.56;79.43
68145;BME280;55400;51.824;-0.196;2024-01-06T18:14:34;101010.97;;;5.58;79.48
68145;BME280;55400;51.824;-0.196;2024-01-06T18:18:34;101016.0;;;5.52;78.99
68145;BME280;55400;51.824;-0.196;2024-01-06T18:22:34;101015.89;;;5.48;79.24
68145;BME280;55400;51.824;-0.196;2024-01-06T18:26:34;101023.90000000001;;;5.46;79.58
68145;BME280;55400;51.824;-0.196;2024-01-06T18:30:34;101032.95000000001;;;5.50;79.17
68145;BME280;55400;51.824;-0.196;2024-01-06T18:34:34;101030.66;;;5.48;78.58
68145;BME280;55400;51.824;-0.196;2024-01-06T18:38:34;101030.66;;;5.47;78.58
68145;BME280;55400;51.824;-0.196;2024-01-06T18:42:34;101040.99;;;5.36;78.80
68145;BME280;55400;51.824;-0.196;2024-01-06T18:46:34;101043.38;;;5.30;79.20
68145;BME280;55400;51.824;-0.196;2024-01-06T18:50:34;101047.32;;;5.32;79.47
68145;BME280;55400;51.824;-0.196;2024-01-06T18:54:34;101047.32;;;5.29;79.22
68145;BME280;55400;51.824;-0.196;2024-01-06T18:58:34;101052.55;;;5.40;79.33
68145;BME280;55400;51.824;-0.196;2024-01-06T19:02:34;101052.55;;;5.44;79.33
68145;BME280;55400;51.824;-0.196;2024-01-06T19:06:34;101055.98999999999;;;5.51;79.11
68145;BME280;55400;51.824;-0.196;2024-01-06T19:10:34;101059.52;;;5.53;79.22
68145;BME280;55400;51.824;-0.196;2024-01-06T19:14:34;101065.83;;;5.57;78.71
68145;BME280;55400;51.824;-0.196;2024-01-06T19:22:34;101067.67;;;5.60;78.17
68145;BME280;55400;51.824;-0.196;2024-01-06T19:26:34;101074.15999999999;;;5.59;78.32
68145;BME280;55400;51.824;-0.196;2024-01-06T19:30:34;101072.25;;;5.63;78.53
68145;BME280;55400;51.824;-0.196;2024-01-06T19:34:34;101078.05;;;5.64;78.56
68145;BME280;55400;51.824;-0.196;2024-01-06T19:38:34;101081.82;;;5.60;78.36
68145;BME280;55400;51.824;-0.196;2024-01-06T19:42:35;101082.01000000001;;;5.61;78.48
68145;BME280;55400;51.824;-0.196;2024-01-06T19:46:34;101088.58;;;5.63;78.42
68145;BME280;55400;51.824;-0.196;2024-01-06T19:58:34;101104.11;;;5.59;78.19
68145;BME280;55400;51.824;-0.196;2024-01-06T20:02:34;101104.11;;;5.58;78.53
68145;BME280;55400;51.824;-0.196;2024-01-06T20:06:34;101104.3;;;5.57;78.59
68145;BME280;55400;51.824;-0.196;2024-01-06T20:10:34;101106.22;;;5.53;78.71
68145;BME280;55400;51.824;-0.196;2024-01-06T20:14:34;101105.17;;;5.54;78.71
68145;BME280;55400;51.824;-0.196;2024-01-06T20:18:34;101105.17;;;5.55;78.74
68145;BME280;55400;51.824;-0.196;2024-01-06T20:26:34;101112.41;;;5.57;78.73
68145;BME280;55400;51.824;-0.196;2024-01-06T20:30:34;101110.85;;;5.64;78.85
68145;BME280;55400;51.824;-0.196;2024-01-06T20:38:34;101112.95;;;5.65;78.36
68145;BME280;55400;51.824;-0.196;2024-01-06T20:42:34;101108.64;;;5.70;78.02
68145;BME280;55400;51.824;-0.196;2024-01-06T20:46:34;101116.18;;;5.69;77.77
68145;BME280;55400;51.824;-0.196;2024-01-06T20:50:34;101120.0;;;5.63;77.57
68145;BME280;55400;51.824;-0.196;2024-01-06T20:54:35;101113.94;;;5.54;77.08
68145;BME280;55400;51.824;-0.196;2024-01-06T20:58:34;101113.94;;;5.50;77.31
68145;BME280;55400;51.824;-0.196;2024-01-06T21:02:34;101111.41;;;5.49;77.87
68145;BME280;55400;51.824;-0.196;2024-01-06T21:06:34;101110.19;;;5.50;78.51
68145;BME280;55400;51.824;-0.196;2024-01-06T21:10:34;101104.04999999999;;;5.53;78.84
68145;BME280;55400;51.824;-0.196;2024-01-06T21:14:34;101104.04999999999;;;5.48;78.84
68145;BME280;55400;51.824;-0.196;2024-01-06T21:18:34;101105.35;;;5.47;78.95
68145;BME280;55400;51.824;-0.196;2024-01-06T21:22:34;101105.35;;;5.49;78.76
68145;BME280;55400;51.824;-0.196;2024-01-06T21:30:34;101101.23;;;5.47;78.79
68145;BME280;55400;51.824;-0.196;2024-01-06T21:34:34;101108.09000000001;;;5.46;77.96
68145;BME280;55400;51.824;-0.196;2024-01-06T21:38:35;101100.07;;;5.38;77.85
68145;BME280;55400;51.824;-0.196;2024-01-06T21:46:36;101110.38;;;5.31;78.08
68145;BME280;55400;51.824;-0.196;2024-01-06T21:50:34;101110.38;;;5.37;78.06
68145;BME280;55400;51.824;-0.196;2024-01-06T21:58:35;101116.09;;;5.38;78.27
68145;BME280;55400;51.824;-0.196;2024-01-06T22:02:34;101122.5;;;5.37;78.28
68145;BME280;55400;51.824;-0.196;2024-01-06T22:06:35;101118.28;;;5.33;78.09
68145;BME280;55400;51.824;-0.196;2024-01-06T22:10:34;101117.8;;;5.31;78.15